Guapo, Brazil
Current Conditions -  °F | °C
As of 2:00 AM on Monday 22 Dec 2014 (Local Time) from SBGO Reporting Station
Light Rain Light Rain  
Wind Chill: 72°   Ceiling: 8000
Heat Index: 72°   Visibility: 6mi
Dew Point: 68°   Wind: 5mph
Humidity: 88%   Direction: 290°WNW
Pressure: 30.03"   Gusts: NA
Location:  16.83°S, 49.53°W
Report Text: SBGO 220400Z 29004KT 9999 -RA FEW018 BKN080 22/20 Q1017
Loading
Personal Weather Stations






























Interactive Weather Map New forecast layout! Learn more

10-Day Weather Forecast

Advertisements
Track Severe Weather on mobile